sensor_id;sensor_type;location;lat;lon;timestamp;pressure;altitude;pressure_sealevel;temperature;humidity
71621;BME280;59471;42.254;23.102;2024-03-02T00:00:07;95333.19;;;7.93;96.89
71621;BME280;59471;42.254;23.102;2024-03-02T00:02:47;95331.75;;;7.90;94.57
71621;BME280;59471;42.254;23.102;2024-03-02T00:05:17;95320.28;;;8.00;93.64
71621;BME280;59471;42.254;23.102;2024-03-02T00:07:45;95333.31;;;7.77;95.94
71621;BME280;59471;42.254;23.102;2024-03-02T00:10:16;95333.53;;;7.90;96.40
71621;BME280;59471;42.254;23.102;2024-03-02T00:12:46;95328.44;;;7.74;97.13
71621;BME280;59471;42.254;23.102;2024-03-02T00:18:14;95325.34;;;8.01;95.88
71621;BME280;59471;42.254;23.102;2024-03-02T00:20:43;95335.81;;;7.93;97.08
71621;BME280;59471;42.254;23.102;2024-03-02T00:23:10;95328.44;;;7.97;97.92
71621;BME280;59471;42.254;23.102;2024-03-02T00:25:40;95329.16;;;8.13;98.47
71621;BME280;59471;42.254;23.102;2024-03-02T00:33:10;95325.03;;;7.96;99.62
71621;BME280;59471;42.254;23.102;2024-03-02T00:35:35;95326.31;;;8.00;99.23
71621;BME280;59471;42.254;23.102;2024-03-02T00:38:05;95324.53;;;8.01;98.67
71621;BME280;59471;42.254;23.102;2024-03-02T00:40:34;95318.38;;;7.94;100.00
71621;BME280;59471;42.254;23.102;2024-03-02T00:42:59;95315.16;;;8.06;100.00
71621;BME280;59471;42.254;23.102;2024-03-02T00:45:25;95314.31;;;8.14;100.00
71621;BME280;59471;42.254;23.102;2024-03-02T00:47:51;95310.25;;;8.11;100.00
71621;BME280;59471;42.254;23.102;2024-03-02T00:50:18;95315.00;;;8.08;100.00
71621;BME280;59471;42.254;23.102;2024-03-02T00:52:44;95317.56;;;7.93;100.00
71621;BME280;59471;42.254;23.102;2024-03-02T00:55:10;95322.75;;;7.70;100.00
71621;BME280;59471;42.254;23.102;2024-03-02T00:57:36;95316.41;;;7.73;100.00
71621;BME280;59471;42.254;23.102;2024-03-02T01:00:01;95330.28;;;7.88;100.00
71621;BME280;59471;42.254;23.102;2024-03-02T01:02:28;95325.31;;;7.78;100.00
71621;BME280;59471;42.254;23.102;2024-03-02T01:04:54;95318.19;;;7.95;100.00
71621;BME280;59471;42.254;23.102;2024-03-02T01:07:20;95324.81;;;8.06;100.00
71621;BME280;59471;42.254;23.102;2024-03-02T01:09:45;95318.00;;;7.97;100.00
71621;BME280;59471;42.254;23.102;2024-03-02T01:12:11;95312.09;;;8.03;100.00
71621;BME280;59471;42.254;23.102;2024-03-02T01:14:36;95308.66;;;8.10;100.00
71621;BME280;59471;42.254;23.102;2024-03-02T01:17:02;95306.44;;;7.99;100.00
71621;BME280;59471;42.254;23.102;2024-03-02T01:19:29;95301.16;;;7.84;100.00
71621;BME280;59471;42.254;23.102;2024-03-02T01:21:56;95294.91;;;7.71;100.00
71621;BME280;59471;42.254;23.102;2024-03-02T01:24:22;95298.63;;;7.45;100.00
71621;BME280;59471;42.254;23.102;2024-03-02T01:26:47;95287.66;;;7.81;100.00
71621;BME280;59471;42.254;23.102;2024-03-02T01:29:13;95297.19;;;7.65;100.00
71621;BME280;59471;42.254;23.102;2024-03-02T01:31:38;95299.47;;;7.69;100.00
71621;BME280;59471;42.254;23.102;2024-03-02T01:34:07;95292.25;;;7.79;100.00
71621;BME280;59471;42.254;23.102;2024-03-02T01:36:33;95286.38;;;7.77;100.00
71621;BME280;59471;42.254;23.102;2024-03-02T01:38:58;95285.69;;;7.60;100.00
71621;BME280;59471;42.254;23.102;2024-03-02T01:41:24;95276.38;;;7.34;100.00
71621;BME280;59471;42.254;23.102;2024-03-02T01:43:49;95273.38;;;7.46;100.00
71621;BME280;59471;42.254;23.102;2024-03-02T01:46:15;95279.06;;;7.49;100.00
71621;BME280;59471;42.254;23.102;2024-03-02T01:48:41;95278.97;;;7.65;100.00
71621;BME280;59471;42.254;23.102;2024-03-02T01:51:06;95282.25;;;7.59;100.00
71621;BME280;59471;42.254;23.102;2024-03-02T01:53:32;95280.94;;;7.63;100.00
71621;BME280;59471;42.254;23.102;2024-03-02T01:55:58;95279.66;;;7.59;100.00
71621;BME280;59471;42.254;23.102;2024-03-02T01:58:23;95282.66;;;7.48;100.00
71621;BME280;59471;42.254;23.102;2024-03-02T02:00:49;95282.56;;;7.64;100.00
71621;BME280;59471;42.254;23.102;2024-03-02T02:03:15;95280.81;;;7.80;100.00
71621;BME280;59471;42.254;23.102;2024-03-02T02:05:42;95276.88;;;7.84;100.00
71621;BME280;59471;42.254;23.102;2024-03-02T02:08:08;95286.28;;;7.93;100.00
71621;BME280;59471;42.254;23.102;2024-03-02T02:10:33;95287.78;;;7.64;100.00
71621;BME280;59471;42.254;23.102;2024-03-02T02:12:59;95287.72;;;7.73;100.00
71621;BME280;59471;42.254;23.102;2024-03-02T02:15:31;95290.38;;;7.64;100.00
71621;BME280;59471;42.254;23.102;2024-03-02T02:17:58;95274.59;;;7.66;100.00
71621;BME280;59471;42.254;23.102;2024-03-02T02:20:24;95279.31;;;7.62;100.00
71621;BME280;59471;42.254;23.102;2024-03-02T02:23:06;95278.97;;;7.65;100.00
71621;BME280;59471;42.254;23.102;2024-03-02T02:25:33;95276.25;;;7.82;100.00
71621;BME280;59471;42.254;23.102;2024-03-02T02:27:59;95289.31;;;7.51;100.00
71621;BME280;59471;42.254;23.102;2024-03-02T02:30:26;95280.19;;;7.15;100.00
71621;BME280;59471;42.254;23.102;2024-03-02T02:32:54;95275.00;;;7.15;100.00
71621;BME280;59471;42.254;23.102;2024-03-02T02:35:19;95268.16;;;7.14;100.00
71621;BME280;59471;42.254;23.102;2024-03-02T02:37:46;95278.81;;;7.36;100.00
71621;BME280;59471;42.254;23.102;2024-03-02T02:40:13;95281.66;;;7.49;100.00
71621;BME280;59471;42.254;23.102;2024-03-02T02:42:39;95291.72;;;7.60;100.00
71621;BME280;59471;42.254;23.102;2024-03-02T02:45:05;95296.94;;;7.60;100.00
71621;BME280;59471;42.254;23.102;2024-03-02T02:47:31;95289.53;;;7.41;100.00
71621;BME280;59471;42.254;23.102;2024-03-02T02:50:01;95284.50;;;7.39;100.00
71621;BME280;59471;42.254;23.102;2024-03-02T02:52:38;95278.03;;;7.58;100.00
71621;BME280;59471;42.254;23.102;2024-03-02T02:55:09;95288.47;;;7.81;100.00
71621;BME280;59471;42.254;23.102;2024-03-02T02:57:37;95274.34;;;7.76;100.00
71621;BME280;59471;42.254;23.102;2024-03-02T03:00:09;95275.38;;;7.66;100.00
71621;BME280;59471;42.254;23.102;2024-03-02T03:02:37;95285.19;;;7.56;100.00
71621;BME280;59471;42.254;23.102;2024-03-02T03:05:05;95280.69;;;7.50;100.00
71621;BME280;59471;42.254;23.102;2024-03-02T03:07:31;95284.69;;;7.61;100.00
71621;BME280;59471;42.254;23.102;2024-03-02T03:09:58;95279.06;;;7.72;100.00
71621;BME280;59471;42.254;23.102;2024-03-02T03:12:24;95277.22;;;7.81;100.00
71621;BME280;59471;42.254;23.102;2024-03-02T03:14:49;95279.13;;;7.87;100.00
71621;BME280;59471;42.254;23.102;2024-03-02T03:17:15;95282.22;;;7.68;100.00
71621;BME280;59471;42.254;23.102;2024-03-02T03:19:40;95277.44;;;7.48;100.00
71621;BME280;59471;42.254;23.102;2024-03-02T03:22:06;95277.41;;;7.25;100.00
71621;BME280;59471;42.254;23.102;2024-03-02T03:24:31;95283.81;;;7.46;100.00
71621;BME280;59471;42.254;23.102;2024-03-02T03:26:58;95294.34;;;7.52;100.00
71621;BME280;59471;42.254;23.102;2024-03-02T03:29:23;95285.84;;;7.58;100.00
71621;BME280;59471;42.254;23.102;2024-03-02T03:31:49;95283.81;;;7.69;100.00
71621;BME280;59471;42.254;23.102;2024-03-02T03:34:14;95284.78;;;7.76;100.00
71621;BME280;59471;42.254;23.102;2024-03-02T03:36:41;95288.00;;;7.78;100.00
71621;BME280;59471;42.254;23.102;2024-03-02T03:39:07;95287.06;;;7.71;100.00
71621;BME280;59471;42.254;23.102;2024-03-02T03:41:33;95290.91;;;7.83;100.00
71621;BME280;59471;42.254;23.102;2024-03-02T03:43:58;95299.13;;;7.72;100.00
71621;BME280;59471;42.254;23.102;2024-03-02T03:46:24;95288.69;;;7.49;100.00
71621;BME280;59471;42.254;23.102;2024-03-02T03:48:49;95292.19;;;7.64;100.00
71621;BME280;59471;42.254;23.102;2024-03-02T03:51:15;95286.84;;;7.57;100.00
71621;BME280;59471;42.254;23.102;2024-03-02T03:53:40;95288.81;;;7.55;100.00
71621;BME280;59471;42.254;23.102;2024-03-02T03:56:06;95279.91;;;7.73;100.00
71621;BME280;59471;42.254;23.102;2024-03-02T03:58:31;95288.94;;;7.85;100.00
71621;BME280;59471;42.254;23.102;2024-03-02T04:00:57;95288.94;;;7.85;100.00
71621;BME280;59471;42.254;23.102;2024-03-02T04:03:22;95287.78;;;7.64;100.00
71621;BME280;59471;42.254;23.102;2024-03-02T04:05:48;95295.97;;;7.53;100.00
71621;BME280;59471;42.254;23.102;2024-03-02T04:08:13;95287.06;;;7.71;100.00
71621;BME280;59471;42.254;23.102;2024-03-02T04:10:39;95285.84;;;7.58;100.00
71621;BME280;59471;42.254;23.102;2024-03-02T04:13:05;95292.16;;;7.41;100.00
71621;BME280;59471;42.254;23.102;2024-03-02T04:15:31;95292.97;;;7.41;100.00
71621;BME280;59471;42.254;23.102;2024-03-02T04:17:56;95283.81;;;7.46;100.00
71621;BME280;59471;42.254;23.102;2024-03-02T04:20:22;95284.97;;;7.43;100.00
71621;BME280;59471;42.254;23.102;2024-03-02T04:22:47;95277.34;;;7.64;100.00
71621;BME280;59471;42.254;23.102;2024-03-02T04:25:13;95286.25;;;7.47;100.00
71621;BME280;59471;42.254;23.102;2024-03-02T04:27:38;95290.75;;;7.53;100.00
71621;BME280;59471;42.254;23.102;2024-03-02T04:30:05;95284.84;;;7.59;100.00
71621;BME280;59471;42.254;23.102;2024-03-02T04:32:31;95284.25;;;7.57;100.00
71621;BME280;59471;42.254;23.102;2024-03-02T04:34:57;95282.47;;;7.18;100.00
71621;BME280;59471;42.254;23.102;2024-03-02T04:37:22;95283.13;;;7.20;100.00
71621;BME280;59471;42.254;23.102;2024-03-02T04:39:48;95285.72;;;7.20;100.00
71621;BME280;59471;42.254;23.102;2024-03-02T04:42:13;95293.19;;;7.32;100.00
71621;BME280;59471;42.254;23.102;2024-03-02T04:44:39;95283.28;;;7.50;100.00
71621;BME280;59471;42.254;23.102;2024-03-02T04:47:04;95294.00;;;7.55;100.00
71621;BME280;59471;42.254;23.102;2024-03-02T04:49:30;95304.09;;;7.58;100.00
71621;BME280;59471;42.254;23.102;2024-03-02T04:51:56;95295.16;;;7.53;100.00
71621;BME280;59471;42.254;23.102;2024-03-02T04:54:24;95304.22;;;7.65;100.00
71621;BME280;59471;42.254;23.102;2024-03-02T04:56:50;95309.53;;;7.72;100.00
71621;BME280;59471;42.254;23.102;2024-03-02T04:59:19;95299.22;;;7.55;100.00
71621;BME280;59471;42.254;23.102;2024-03-02T05:01:45;95301.59;;;7.34;100.00
71621;BME280;59471;42.254;23.102;2024-03-02T05:04:10;95298.19;;;7.33;100.00
71621;BME280;59471;42.254;23.102;2024-03-02T05:06:40;95307.50;;;7.28;100.00
71621;BME280;59471;42.254;23.102;2024-03-02T05:09:09;95308.72;;;7.48;100.00
71621;BME280;59471;42.254;23.102;2024-03-02T05:11:35;95312.22;;;7.63;100.00
71621;BME280;59471;42.254;23.102;2024-03-02T05:14:04;95310.69;;;7.69;100.00
71621;BME280;59471;42.254;23.102;2024-03-02T05:16:33;95316.47;;;7.56;100.00
71621;BME280;59471;42.254;23.102;2024-03-02T05:18:59;95316.22;;;7.43;100.00
71621;BME280;59471;42.254;23.102;2024-03-02T05:21:25;95318.91;;;7.58;100.00
71621;BME280;59471;42.254;23.102;2024-03-02T05:23:50;95321.34;;;7.59;100.00
71621;BME280;59471;42.254;23.102;2024-03-02T05:26:16;95315.63;;;7.33;100.00
71621;BME280;59471;42.254;23.102;2024-03-02T05:28:42;95322.50;;;7.26;100.00
71621;BME280;59471;42.254;23.102;2024-03-02T05:31:10;95325.50;;;7.46;100.00
71621;BME280;59471;42.254;23.102;2024-03-02T05:33:39;95328.53;;;7.57;100.00
71621;BME280;59471;42.254;23.102;2024-03-02T05:36:05;95324.59;;;7.61;100.00
71621;BME280;59471;42.254;23.102;2024-03-02T05:38:32;95333.19;;;7.70;100.00
71621;BME280;59471;42.254;23.102;2024-03-02T05:40:57;95336.28;;;7.65;100.00
71621;BME280;59471;42.254;23.102;2024-03-02T05:43:23;95333.97;;;7.48;100.00
71621;BME280;59471;42.254;23.102;2024-03-02T05:45:48;95337.75;;;7.37;100.00
71621;BME280;59471;42.254;23.102;2024-03-02T05:48:14;95337.81;;;7.60;100.00
71621;BME280;59471;42.254;23.102;2024-03-02T05:50:40;95337.06;;;7.43;100.00
71621;BME280;59471;42.254;23.102;2024-03-02T05:53:05;95334.63;;;7.41;100.00
71621;BME280;59471;42.254;23.102;2024-03-02T05:55:31;95347.59;;;7.50;100.00
71621;BME280;59471;42.254;23.102;2024-03-02T05:57:57;95344.94;;;7.35;100.00
71621;BME280;59471;42.254;23.102;2024-03-02T06:00:47;95351.09;;;7.34;100.00
71621;BME280;59471;42.254;23.102;2024-03-02T06:03:13;95346.66;;;7.51;100.00
71621;BME280;59471;42.254;23.102;2024-03-02T06:05:38;95343.28;;;7.34;100.00
71621;BME280;59471;42.254;23.102;2024-03-02T06:08:04;95352.56;;;7.36;100.00
71621;BME280;59471;42.254;23.102;2024-03-02T06:10:30;95348.78;;;7.47;100.00
71621;BME280;59471;42.254;23.102;2024-03-02T06:12:55;95345.19;;;7.48;100.00
71621;BME280;59471;42.254;23.102;2024-03-02T06:15:21;95351.41;;;7.39;100.00
71621;BME280;59471;42.254;23.102;2024-03-02T06:17:46;95343.16;;;7.66;100.00
71621;BME280;59471;42.254;23.102;2024-03-02T06:20:12;95346.03;;;7.72;100.00
71621;BME280;59471;42.254;23.102;2024-03-02T06:22:37;95348.75;;;7.78;100.00
71621;BME280;59471;42.254;23.102;2024-03-02T06:25:03;95352.56;;;7.76;100.00
71621;BME280;59471;42.254;23.102;2024-03-02T06:27:29;95357.56;;;7.46;100.00
71621;BME280;59471;42.254;23.102;2024-03-02T06:29:54;95355.88;;;7.61;100.00
71621;BME280;59471;42.254;23.102;2024-03-02T06:32:20;95352.41;;;7.69;100.00
71621;BME280;59471;42.254;23.102;2024-03-02T06:34:46;95362.97;;;7.76;100.00
71621;BME280;59471;42.254;23.102;2024-03-02T06:37:11;95359.63;;;7.90;100.00
71621;BME280;59471;42.254;23.102;2024-03-02T06:39:38;95360.31;;;7.84;100.00
71621;BME280;59471;42.254;23.102;2024-03-02T06:42:04;95359.72;;;7.97;100.00
71621;BME280;59471;42.254;23.102;2024-03-02T06:44:29;95366.16;;;7.86;100.00
71621;BME280;59471;42.254;23.102;2024-03-02T06:46:55;95366.66;;;7.81;100.00
71621;BME280;59471;42.254;23.102;2024-03-02T06:49:20;95371.41;;;7.78;100.00
71621;BME280;59471;42.254;23.102;2024-03-02T06:51:46;95369.34;;;7.96;100.00
71621;BME280;59471;42.254;23.102;2024-03-02T06:54:11;95377.19;;;8.19;100.00
71621;BME280;59471;42.254;23.102;2024-03-02T06:56:37;95374.81;;;8.09;100.00
71621;BME280;59471;42.254;23.102;2024-03-02T06:59:03;95371.75;;;8.06;100.00
71621;BME280;59471;42.254;23.102;2024-03-02T07:01:29;95367.16;;;8.08;100.00
71621;BME280;59471;42.254;23.102;2024-03-02T07:03:54;95374.00;;;8.09;100.00
71621;BME280;59471;42.254;23.102;2024-03-02T07:06:20;95367.97;;;8.08;100.00
71621;BME280;59471;42.254;23.102;2024-03-02T07:08:45;95374.22;;;7.99;100.00
71621;BME280;59471;42.254;23.102;2024-03-02T07:11:11;95370.63;;;8.00;100.00
71621;BME280;59471;42.254;23.102;2024-03-02T07:13:36;95379.81;;;7.88;100.00
71621;BME280;59471;42.254;23.102;2024-03-02T07:16:02;95378.97;;;7.73;100.00
71621;BME280;59471;42.254;23.102;2024-03-02T07:18:28;95384.38;;;7.63;100.00
71621;BME280;59471;42.254;23.102;2024-03-02T07:20:54;95382.91;;;7.60;100.00
71621;BME280;59471;42.254;23.102;2024-03-02T07:23:20;95381.03;;;7.77;100.00
71621;BME280;59471;42.254;23.102;2024-03-02T07:25:49;95381.75;;;7.94;100.00
71621;BME280;59471;42.254;23.102;2024-03-02T07:28:15;95382.06;;;7.99;100.00
71621;BME280;59471;42.254;23.102;2024-03-02T07:30:41;95383.81;;;7.76;100.00
71621;BME280;59471;42.254;23.102;2024-03-02T07:33:07;95380.56;;;7.74;100.00
71621;BME280;59471;42.254;23.102;2024-03-02T07:35:32;95390.91;;;7.90;100.00
71621;BME280;59471;42.254;23.102;2024-03-02T07:37:58;95390.41;;;7.63;100.00
71621;BME280;59471;42.254;23.102;2024-03-02T07:40:24;95386.47;;;7.68;100.00
71621;BME280;59471;42.254;23.102;2024-03-02T07:42:50;95390.53;;;7.70;100.00
71621;BME280;59471;42.254;23.102;2024-03-02T07:45:15;95383.50;;;7.79;100.00
71621;BME280;59471;42.254;23.102;2024-03-02T07:47:41;95393.00;;;7.95;100.00
71621;BME280;59471;42.254;23.102;2024-03-02T07:50:07;95394.78;;;7.94;100.00
71621;BME280;59471;42.254;23.102;2024-03-02T07:52:33;95393.41;;;8.06;100.00
71621;BME280;59471;42.254;23.102;2024-03-02T07:54:58;95398.72;;;7.90;100.00
71621;BME280;59471;42.254;23.102;2024-03-02T07:57:24;95402.13;;;7.90;100.00
71621;BME280;59471;42.254;23.102;2024-03-02T07:59:50;95402.59;;;7.94;100.00
71621;BME280;59471;42.254;23.102;2024-03-02T08:02:16;95401.13;;;8.23;100.00
71621;BME280;59471;42.254;23.102;2024-03-02T08:04:41;95396.91;;;8.22;100.00
71621;BME280;59471;42.254;23.102;2024-03-02T08:07:07;95397.94;;;8.12;100.00
71621;BME280;59471;42.254;23.102;2024-03-02T08:09:34;95402.31;;;8.20;100.00
71621;BME280;59471;42.254;23.102;2024-03-02T08:12:00;95407.41;;;8.13;100.00
71621;BME280;59471;42.254;23.102;2024-03-02T08:14:25;95409.59;;;8.25;100.00
71621;BME280;59471;42.254;23.102;2024-03-02T08:16:51;95403.13;;;8.44;100.00
71621;BME280;59471;42.254;23.102;2024-03-02T08:19:17;95410.59;;;8.70;100.00
71621;BME280;59471;42.254;23.102;2024-03-02T08:21:43;95410.63;;;8.85;100.00
71621;BME280;59471;42.254;23.102;2024-03-02T08:24:08;95403.25;;;8.73;100.00
71621;BME280;59471;42.254;23.102;2024-03-02T08:26:34;95403.34;;;8.80;100.00
71621;BME280;59471;42.254;23.102;2024-03-02T08:29:00;95402.16;;;8.68;100.00
71621;BME280;59471;42.254;23.102;2024-03-02T08:31:29;95411.88;;;8.74;100.00
71621;BME280;59471;42.254;23.102;2024-03-02T08:33:55;95405.66;;;8.75;100.00
71621;BME280;59471;42.254;23.102;2024-03-02T08:36:22;95414.78;;;8.33;100.00
71621;BME280;59471;42.254;23.102;2024-03-02T08:38:49;95418.75;;;8.21;100.00
71621;BME280;59471;42.254;23.102;2024-03-02T08:41:15;95410.63;;;8.16;100.00
71621;BME280;59471;42.254;23.102;2024-03-02T08:43:42;95425.25;;;8.25;100.00
71621;BME280;59471;42.254;23.102;2024-03-02T08:46:08;95421.25;;;8.45;100.00
71621;BME280;59471;42.254;23.102;2024-03-02T08:48:34;95414.75;;;8.64;100.00
71621;BME280;59471;42.254;23.102;2024-03-02T08:50:59;95424.25;;;8.80;100.00
71621;BME280;59471;42.254;23.102;2024-03-02T08:53:25;95418.25;;;9.09;100.00
71621;BME280;59471;42.254;23.102;2024-03-02T08:55:51;95424.28;;;9.10;100.00
71621;BME280;59471;42.254;23.102;2024-03-02T08:58:17;95422.59;;;8.79;100.00
71621;BME280;59471;42.254;23.102;2024-03-02T09:00:42;95421.53;;;8.88;100.00
71621;BME280;59471;42.254;23.102;2024-03-02T09:03:08;95427.13;;;8.85;100.00
71621;BME280;59471;42.254;23.102;2024-03-02T09:05:34;95425.41;;;8.77;100.00
71621;BME280;59471;42.254;23.102;2024-03-02T09:08:00;95428.06;;;8.92;100.00
71621;BME280;59471;42.254;23.102;2024-03-02T09:10:25;95426.84;;;8.95;100.00
71621;BME280;59471;42.254;23.102;2024-03-02T09:12:51;95429.31;;;8.96;100.00
71621;BME280;59471;42.254;23.102;2024-03-02T09:15:16;95433.63;;;9.04;99.35
71621;BME280;59471;42.254;23.102;2024-03-02T09:17:43;95441.22;;;9.14;98.71
71621;BME280;59471;42.254;23.102;2024-03-02T09:20:09;95436.94;;;8.98;98.94
71621;BME280;59471;42.254;23.102;2024-03-02T09:22:35;95437.81;;;9.28;97.78
71621;BME280;59471;42.254;23.102;2024-03-02T09:25:00;95445.09;;;9.33;97.74
71621;BME280;59471;42.254;23.102;2024-03-02T09:27:26;95439.25;;;9.45;95.72
71621;BME280;59471;42.254;23.102;2024-03-02T09:29:51;95439.88;;;9.18;98.50
71621;BME280;59471;42.254;23.102;2024-03-02T09:32:17;95439.53;;;9.36;99.70
71621;BME280;59471;42.254;23.102;2024-03-02T09:34:42;95441.31;;;9.80;99.65
71621;BME280;59471;42.254;23.102;2024-03-02T09:37:08;95442.47;;;10.07;97.96
71621;BME280;59471;42.254;23.102;2024-03-02T09:39:34;95442.47;;;9.92;98.31
71621;BME280;59471;42.254;23.102;2024-03-02T09:42:00;95436.50;;;10.13;97.82
71621;BME280;59471;42.254;23.102;2024-03-02T09:44:26;95438.78;;;10.01;97.89
71621;BME280;59471;42.254;23.102;2024-03-02T09:46:52;95441.72;;;10.13;96.92
71621;BME280;59471;42.254;23.102;2024-03-02T09:49:17;95435.03;;;10.25;96.42
71621;BME280;59471;42.254;23.102;2024-03-02T09:51:52;95438.34;;;10.34;95.57
71621;BME280;59471;42.254;23.102;2024-03-02T09:54:18;95438.06;;;10.43;94.80
71621;BME280;59471;42.254;23.102;2024-03-02T09:56:44;95432.47;;;10.47;96.18
71621;BME280;59471;42.254;23.102;2024-03-02T09:59:10;95430.44;;;10.49;96.44
71621;BME280;59471;42.254;23.102;2024-03-02T10:01:36;95424.47;;;10.55;95.03
71621;BME280;59471;42.254;23.102;2024-03-02T10:04:01;95435.38;;;10.58;94.15
71621;BME280;59471;42.254;23.102;2024-03-02T10:06:30;95428.34;;;10.37;95.42
71621;BME280;59471;42.254;23.102;2024-03-02T10:08:56;95428.53;;;10.57;95.10
71621;BME280;59471;42.254;23.102;2024-03-02T10:11:32;95427.78;;;10.63;91.40
71621;BME280;59471;42.254;23.102;2024-03-02T10:14:12;95431.88;;;10.51;91.05
71621;BME280;59471;42.254;23.102;2024-03-02T10:16:40;95424.09;;;10.36;92.06
71621;BME280;59471;42.254;23.102;2024-03-02T10:19:15;95431.84;;;10.66;92.92
71621;BME280;59471;42.254;23.102;2024-03-02T10:21:47;95425.84;;;10.72;90.46
71621;BME280;59471;42.254;23.102;2024-03-02T10:24:20;95432.06;;;10.93;87.21
71621;BME280;59471;42.254;23.102;2024-03-02T10:26:47;95424.41;;;10.70;86.44
71621;BME280;59471;42.254;23.102;2024-03-02T10:29:13;95422.47;;;10.57;88.01
71621;BME280;59471;42.254;23.102;2024-03-02T10:31:43;95417.63;;;10.75;89.63
71621;BME280;59471;42.254;23.102;2024-03-02T10:34:10;95423.94;;;10.87;87.33
71621;BME280;59471;42.254;23.102;2024-03-02T10:36:37;95415.38;;;10.72;85.88
71621;BME280;59471;42.254;23.102;2024-03-02T10:39:07;95418.06;;;10.57;86.21
71621;BME280;59471;42.254;23.102;2024-03-02T10:41:37;95419.50;;;10.60;84.76
71621;BME280;59471;42.254;23.102;2024-03-02T10:44:05;95421.22;;;10.74;85.46
71621;BME280;59471;42.254;23.102;2024-03-02T10:46:32;95416.97;;;10.73;87.81
71621;BME280;59471;42.254;23.102;2024-03-02T10:49:02;95409.97;;;11.02;87.84
71621;BME280;59471;42.254;23.102;2024-03-02T10:51:33;95413.28;;;11.17;86.41
71621;BME280;59471;42.254;23.102;2024-03-02T10:54:02;95410.44;;;11.12;85.63
71621;BME280;59471;42.254;23.102;2024-03-02T10:56:38;95408.50;;;11.27;84.98
71621;BME280;59471;42.254;23.102;2024-03-02T11:01:50;95405.19;;;11.12;86.76
71621;BME280;59471;42.254;23.102;2024-03-02T11:04:18;95405.94;;;11.06;84.80
71621;BME280;59471;42.254;23.102;2024-03-02T11:06:51;95400.13;;;10.82;85.49
71621;BME280;59471;42.254;23.102;2024-03-02T11:09:22;95402.34;;;11.07;83.77
71621;BME280;59471;42.254;23.102;2024-03-02T11:12:03;95399.50;;;10.80;84.92
71621;BME280;59471;42.254;23.102;2024-03-02T11:14:37;95396.81;;;10.95;84.34
71621;BME280;59471;42.254;23.102;2024-03-02T11:17:08;95395.81;;;10.96;82.28
71621;BME280;59471;42.254;23.102;2024-03-02T11:19:34;95396.41;;;11.26;82.26
71621;BME280;59471;42.254;23.102;2024-03-02T11:22:02;95391.19;;;11.26;80.04
71621;BME280;59471;42.254;23.102;2024-03-02T11:24:29;95385.16;;;11.32;81.77
71621;BME280;59471;42.254;23.102;2024-03-02T11:26:59;95390.00;;;11.70;81.26
71621;BME280;59471;42.254;23.102;2024-03-02T11:32:02;95387.53;;;11.62;81.08
71621;BME280;59471;42.254;23.102;2024-03-02T11:34:29;95392.63;;;11.70;79.51
71621;BME280;59471;42.254;23.102;2024-03-02T11:36:56;95387.19;;;11.37;82.37
71621;BME280;59471;42.254;23.102;2024-03-02T11:39:22;95384.50;;;11.58;80.69
71621;BME280;59471;42.254;23.102;2024-03-02T11:41:48;95386.06;;;11.53;78.64
71621;BME280;59471;42.254;23.102;2024-03-02T11:44:14;95386.28;;;11.51;79.70
71621;BME280;59471;42.254;23.102;2024-03-02T11:46:40;95392.56;;;11.57;80.45
71621;BME280;59471;42.254;23.102;2024-03-02T11:49:05;95384.97;;;11.75;78.79
71621;BME280;59471;42.254;23.102;2024-03-02T11:51:33;95379.91;;;11.67;78.61
71621;BME280;59471;42.254;23.102;2024-03-02T11:54:00;95384.75;;;11.70;79.65
71621;BME280;59471;42.254;23.102;2024-03-02T11:56:28;95375.63;;;11.66;79.31
71621;BME280;59471;42.254;23.102;2024-03-02T11:58:56;95375.59;;;11.53;76.72
71621;BME280;59471;42.254;23.102;2024-03-02T12:01:23;95371.28;;;11.39;77.04
71621;BME280;59471;42.254;23.102;2024-03-02T12:03:48;95372.44;;;11.29;77.70
71621;BME280;59471;42.254;23.102;2024-03-02T12:06:14;95373.38;;;11.22;79.44
71621;BME280;59471;42.254;23.102;2024-03-02T12:08:40;95371.00;;;11.27;78.00
71621;BME280;59471;42.254;23.102;2024-03-02T12:11:06;95360.22;;;10.80;80.24
71621;BME280;59471;42.254;23.102;2024-03-02T12:13:32;95360.22;;;10.80;80.63
71621;BME280;59471;42.254;23.102;2024-03-02T12:15:58;95358.78;;;11.06;81.72
71621;BME280;59471;42.254;23.102;2024-03-02T12:18:24;95365.34;;;11.23;81.35
71621;BME280;59471;42.254;23.102;2024-03-02T12:20:50;95361.88;;;11.51;77.90
71621;BME280;59471;42.254;23.102;2024-03-02T12:23:23;95364.66;;;11.43;79.24
71621;BME280;59471;42.254;23.102;2024-03-02T12:25:49;95355.91;;;11.70;79.71
71621;BME280;59471;42.254;23.102;2024-03-02T12:28:15;95356.59;;;11.86;78.32
71621;BME280;59471;42.254;23.102;2024-03-02T12:30:40;95357.59;;;11.91;76.82
71621;BME280;59471;42.254;23.102;2024-03-02T12:33:06;95356.41;;;12.00;77.50
71621;BME280;59471;42.254;23.102;2024-03-02T12:35:32;95357.22;;;12.01;77.34
71621;BME280;59471;42.254;23.102;2024-03-02T12:37:57;95355.63;;;12.00;76.69
71621;BME280;59471;42.254;23.102;2024-03-02T12:40:23;95348.06;;;11.83;76.53
71621;BME280;59471;42.254;23.102;2024-03-02T12:42:50;95342.91;;;11.55;77.20
71621;BME280;59471;42.254;23.102;2024-03-02T12:45:16;95340.50;;;11.54;76.39
71621;BME280;59471;42.254;23.102;2024-03-02T12:47:49;95343.31;;;11.52;75.34
71621;BME280;59471;42.254;23.102;2024-03-02T12:50:15;95353.00;;;11.52;75.27
71621;BME280;59471;42.254;23.102;2024-03-02T12:52:41;95347.78;;;11.65;76.22
71621;BME280;59471;42.254;23.102;2024-03-02T12:55:06;95351.00;;;11.54;76.15
71621;BME280;59471;42.254;23.102;2024-03-02T12:57:33;95352.88;;;11.73;73.85
71621;BME280;59471;42.254;23.102;2024-03-02T13:00:05;95359.47;;;11.56;76.46